sensor_id;sensor_type;location;lat;lon;timestamp;temperature;humidity
59148;DHT22;44930;52.878;6.168;2022-12-07T00:02:17;3.70;99.90
59148;DHT22;44930;52.878;6.168;2022-12-07T00:04:42;3.60;99.90
59148;DHT22;44930;52.878;6.168;2022-12-07T00:07:08;3.50;99.90
59148;DHT22;44930;52.878;6.168;2022-12-07T00:09:34;3.60;99.90
59148;DHT22;44930;52.878;6.168;2022-12-07T00:11:59;3.50;99.90
59148;DHT22;44930;52.878;6.168;2022-12-07T00:14:25;3.50;99.90
59148;DHT22;44930;52.878;6.168;2022-12-07T00:16:51;3.50;99.90
59148;DHT22;44930;52.878;6.168;2022-12-07T00:19:17;3.50;99.90
59148;DHT22;44930;52.878;6.168;2022-12-07T00:21:43;3.40;99.90
59148;DHT22;44930;52.878;6.168;2022-12-07T00:24:10;3.30;99.90
59148;DHT22;44930;52.878;6.168;2022-12-07T00:29:06;3.30;99.90
59148;DHT22;44930;52.878;6.168;2022-12-07T00:31:36;3.30;99.90
59148;DHT22;44930;52.878;6.168;2022-12-07T00:36:30;3.10;99.90
59148;DHT22;44930;52.878;6.168;2022-12-07T00:38:58;3.30;99.90
59148;DHT22;44930;52.878;6.168;2022-12-07T00:41:26;3.20;99.90
59148;DHT22;44930;52.878;6.168;2022-12-07T00:43:52;3.30;99.90
59148;DHT22;44930;52.878;6.168;2022-12-07T00:46:18;3.40;99.90
59148;DHT22;44930;52.878;6.168;2022-12-07T00:48:45;3.60;99.90
59148;DHT22;44930;52.878;6.168;2022-12-07T00:51:12;3.50;99.90
59148;DHT22;44930;52.878;6.168;2022-12-07T00:53:38;3.60;99.90
59148;DHT22;44930;52.878;6.168;2022-12-07T00:56:13;3.50;99.90
59148;DHT22;44930;52.878;6.168;2022-12-07T00:58:39;3.30;99.90
59148;DHT22;44930;52.878;6.168;2022-12-07T01:01:06;3.50;99.90
59148;DHT22;44930;52.878;6.168;2022-12-07T01:03:32;3.60;99.90
59148;DHT22;44930;52.878;6.168;2022-12-07T01:05:57;3.60;99.90
59148;DHT22;44930;52.878;6.168;2022-12-07T01:08:24;3.60;99.90
59148;DHT22;44930;52.878;6.168;2022-12-07T01:11:00;3.60;99.90
59148;DHT22;44930;52.878;6.168;2022-12-07T01:13:26;3.50;99.90
59148;DHT22;44930;52.878;6.168;2022-12-07T01:15:56;4.00;99.90
59148;DHT22;44930;52.878;6.168;2022-12-07T01:18:22;3.50;99.90
59148;DHT22;44930;52.878;6.168;2022-12-07T01:21:16;3.70;99.90
59148;DHT22;44930;52.878;6.168;2022-12-07T01:23:42;3.30;99.90
59148;DHT22;44930;52.878;6.168;2022-12-07T01:26:12;3.40;99.90
59148;DHT22;44930;52.878;6.168;2022-12-07T01:28:38;3.50;99.90
59148;DHT22;44930;52.878;6.168;2022-12-07T01:31:12;3.40;99.90
59148;DHT22;44930;52.878;6.168;2022-12-07T01:33:41;3.20;99.90
59148;DHT22;44930;52.878;6.168;2022-12-07T01:36:21;3.40;99.90
59148;DHT22;44930;52.878;6.168;2022-12-07T01:38:49;3.60;99.90
59148;DHT22;44930;52.878;6.168;2022-12-07T01:41:19;3.70;99.90
59148;DHT22;44930;52.878;6.168;2022-12-07T01:46:57;3.90;99.90
59148;DHT22;44930;52.878;6.168;2022-12-07T01:49:35;3.60;99.90
59148;DHT22;44930;52.878;6.168;2022-12-07T01:54:32;3.60;99.90
59148;DHT22;44930;52.878;6.168;2022-12-07T01:56:59;3.60;99.90
59148;DHT22;44930;52.878;6.168;2022-12-07T01:59:25;3.30;99.90
59148;DHT22;44930;52.878;6.168;2022-12-07T02:01:52;3.30;99.90
59148;DHT22;44930;52.878;6.168;2022-12-07T02:04:19;3.30;99.90
59148;DHT22;44930;52.878;6.168;2022-12-07T02:09:12;3.50;99.90
59148;DHT22;44930;52.878;6.168;2022-12-07T02:11:38;3.60;99.90
59148;DHT22;44930;52.878;6.168;2022-12-07T02:14:04;3.50;99.90
59148;DHT22;44930;52.878;6.168;2022-12-07T02:25:57;3.60;99.90
59148;DHT22;44930;52.878;6.168;2022-12-07T02:28:34;3.50;99.90
59148;DHT22;44930;52.878;6.168;2022-12-07T02:31:27;3.50;99.90
59148;DHT22;44930;52.878;6.168;2022-12-07T02:36:45;3.90;99.90
59148;DHT22;44930;52.878;6.168;2022-12-07T02:39:25;4.10;99.90
59148;DHT22;44930;52.878;6.168;2022-12-07T02:42:00;4.00;99.90
59148;DHT22;44930;52.878;6.168;2022-12-07T02:44:28;4.30;99.90
59148;DHT22;44930;52.878;6.168;2022-12-07T02:46:58;4.60;99.90
59148;DHT22;44930;52.878;6.168;2022-12-07T02:49:26;4.20;99.90
59148;DHT22;44930;52.878;6.168;2022-12-07T02:51:52;4.20;99.90
59148;DHT22;44930;52.878;6.168;2022-12-07T02:54:20;4.20;99.90
59148;DHT22;44930;52.878;6.168;2022-12-07T03:18:37;4.20;99.90
59148;DHT22;44930;52.878;6.168;2022-12-07T03:21:09;4.50;99.90
59148;DHT22;44930;52.878;6.168;2022-12-07T03:26:04;4.10;99.90
59148;DHT22;44930;52.878;6.168;2022-12-07T03:28:36;4.30;99.90
59148;DHT22;44930;52.878;6.168;2022-12-07T03:31:10;4.20;99.90
59148;DHT22;44930;52.878;6.168;2022-12-07T03:37:22;4.40;99.90
59148;DHT22;44930;52.878;6.168;2022-12-07T03:42:35;4.10;99.90
59148;DHT22;44930;52.878;6.168;2022-12-07T03:45:02;4.00;99.90
59148;DHT22;44930;52.878;6.168;2022-12-07T03:47:47;3.90;99.90
59148;DHT22;44930;52.878;6.168;2022-12-07T03:50:30;3.70;99.90
59148;DHT22;44930;52.878;6.168;2022-12-07T03:53:11;3.80;99.90
59148;DHT22;44930;52.878;6.168;2022-12-07T03:55:41;3.80;99.90
59148;DHT22;44930;52.878;6.168;2022-12-07T03:58:11;3.90;99.90
59148;DHT22;44930;52.878;6.168;2022-12-07T04:00:37;3.80;99.90
59148;DHT22;44930;52.878;6.168;2022-12-07T04:03:03;3.70;99.90
59148;DHT22;44930;52.878;6.168;2022-12-07T04:05:29;3.60;99.90
59148;DHT22;44930;52.878;6.168;2022-12-07T04:07:55;3.60;99.90
59148;DHT22;44930;52.878;6.168;2022-12-07T04:10:20;3.60;99.90
59148;DHT22;44930;52.878;6.168;2022-12-07T04:12:46;3.60;99.90
59148;DHT22;44930;52.878;6.168;2022-12-07T04:15:12;3.60;99.90
59148;DHT22;44930;52.878;6.168;2022-12-07T04:17:38;3.70;99.90
59148;DHT22;44930;52.878;6.168;2022-12-07T04:20:04;3.40;99.90
59148;DHT22;44930;52.878;6.168;2022-12-07T04:22:30;3.40;99.90
59148;DHT22;44930;52.878;6.168;2022-12-07T04:24:56;3.60;99.90
59148;DHT22;44930;52.878;6.168;2022-12-07T04:29:47;3.40;99.90
59148;DHT22;44930;52.878;6.168;2022-12-07T04:32:13;3.50;99.90
59148;DHT22;44930;52.878;6.168;2022-12-07T04:34:39;3.60;99.90
59148;DHT22;44930;52.878;6.168;2022-12-07T04:37:04;3.50;99.90
59148;DHT22;44930;52.878;6.168;2022-12-07T04:39:31;3.60;99.90
59148;DHT22;44930;52.878;6.168;2022-12-07T04:41:57;3.60;99.90
59148;DHT22;44930;52.878;6.168;2022-12-07T04:44:24;3.50;99.90
59148;DHT22;44930;52.878;6.168;2022-12-07T04:46:51;3.50;99.90
59148;DHT22;44930;52.878;6.168;2022-12-07T04:49:17;3.60;99.90
59148;DHT22;44930;52.878;6.168;2022-12-07T04:51:43;3.60;99.90
59148;DHT22;44930;52.878;6.168;2022-12-07T04:54:09;3.50;99.90
59148;DHT22;44930;52.878;6.168;2022-12-07T04:56:35;3.60;99.90
59148;DHT22;44930;52.878;6.168;2022-12-07T04:59:02;3.40;99.90
59148;DHT22;44930;52.878;6.168;2022-12-07T05:01:28;3.40;99.90
59148;DHT22;44930;52.878;6.168;2022-12-07T05:03:54;3.40;99.90
59148;DHT22;44930;52.878;6.168;2022-12-07T05:06:20;3.30;99.90
59148;DHT22;44930;52.878;6.168;2022-12-07T05:08:45;3.10;99.90
59148;DHT22;44930;52.878;6.168;2022-12-07T05:11:11;3.10;99.90
59148;DHT22;44930;52.878;6.168;2022-12-07T05:14:02;3.10;99.90
59148;DHT22;44930;52.878;6.168;2022-12-07T05:16:27;3.00;99.90
59148;DHT22;44930;52.878;6.168;2022-12-07T05:18:53;2.90;99.90
59148;DHT22;44930;52.878;6.168;2022-12-07T05:21:18;2.80;99.90
59148;DHT22;44930;52.878;6.168;2022-12-07T05:26:10;2.60;99.90
59148;DHT22;44930;52.878;6.168;2022-12-07T05:28:36;2.60;99.90
59148;DHT22;44930;52.878;6.168;2022-12-07T05:31:01;2.60;99.90
59148;DHT22;44930;52.878;6.168;2022-12-07T05:35:53;2.50;99.90
59148;DHT22;44930;52.878;6.168;2022-12-07T05:38:18;2.60;99.90
59148;DHT22;44930;52.878;6.168;2022-12-07T05:40:44;2.80;99.90
59148;DHT22;44930;52.878;6.168;2022-12-07T05:43:10;2.90;99.90
59148;DHT22;44930;52.878;6.168;2022-12-07T05:48:01;3.20;99.90
59148;DHT22;44930;52.878;6.168;2022-12-07T05:50:27;3.20;99.90
59148;DHT22;44930;52.878;6.168;2022-12-07T05:52:53;3.40;99.90
59148;DHT22;44930;52.878;6.168;2022-12-07T05:57:45;3.50;99.90
59148;DHT22;44930;52.878;6.168;2022-12-07T06:00:31;3.50;99.90
59148;DHT22;44930;52.878;6.168;2022-12-07T06:02:56;3.60;99.90
59148;DHT22;44930;52.878;6.168;2022-12-07T06:05:22;3.70;99.90
59148;DHT22;44930;52.878;6.168;2022-12-07T06:07:48;3.70;99.90
59148;DHT22;44930;52.878;6.168;2022-12-07T06:10:14;3.70;99.90
59148;DHT22;44930;52.878;6.168;2022-12-07T06:12:40;3.90;99.90
59148;DHT22;44930;52.878;6.168;2022-12-07T06:17:34;3.70;99.90
59148;DHT22;44930;52.878;6.168;2022-12-07T06:19:59;3.80;99.90
59148;DHT22;44930;52.878;6.168;2022-12-07T06:22:25;3.70;99.90
59148;DHT22;44930;52.878;6.168;2022-12-07T06:24:50;3.70;99.90
59148;DHT22;44930;52.878;6.168;2022-12-07T06:27:16;3.70;99.90
59148;DHT22;44930;52.878;6.168;2022-12-07T06:29:41;3.70;99.90
59148;DHT22;44930;52.878;6.168;2022-12-07T06:32:07;3.70;99.90
59148;DHT22;44930;52.878;6.168;2022-12-07T06:34:33;3.60;99.90
59148;DHT22;44930;52.878;6.168;2022-12-07T06:36:58;3.60;99.90
59148;DHT22;44930;52.878;6.168;2022-12-07T06:39:26;3.60;99.90
59148;DHT22;44930;52.878;6.168;2022-12-07T06:41:52;3.60;99.90
59148;DHT22;44930;52.878;6.168;2022-12-07T06:44:18;3.60;99.90
59148;DHT22;44930;52.878;6.168;2022-12-07T06:46:44;3.50;99.90
59148;DHT22;44930;52.878;6.168;2022-12-07T06:49:10;3.50;99.90
59148;DHT22;44930;52.878;6.168;2022-12-07T06:51:35;3.50;99.90
59148;DHT22;44930;52.878;6.168;2022-12-07T06:54:03;3.40;99.90
59148;DHT22;44930;52.878;6.168;2022-12-07T06:56:29;3.30;99.90
59148;DHT22;44930;52.878;6.168;2022-12-07T06:58:55;3.30;99.90
59148;DHT22;44930;52.878;6.168;2022-12-07T07:01:20;3.30;99.90
59148;DHT22;44930;52.878;6.168;2022-12-07T07:03:46;3.30;99.90
59148;DHT22;44930;52.878;6.168;2022-12-07T07:06:13;3.20;99.90
59148;DHT22;44930;52.878;6.168;2022-12-07T07:08:39;3.00;99.90
59148;DHT22;44930;52.878;6.168;2022-12-07T07:11:07;3.00;99.90
59148;DHT22;44930;52.878;6.168;2022-12-07T07:13:33;2.90;99.90
59148;DHT22;44930;52.878;6.168;2022-12-07T07:15:59;2.80;99.90
59148;DHT22;44930;52.878;6.168;2022-12-07T07:18:25;2.60;99.90
59148;DHT22;44930;52.878;6.168;2022-12-07T07:20:51;2.70;99.90
59148;DHT22;44930;52.878;6.168;2022-12-07T07:23:17;2.70;99.90
59148;DHT22;44930;52.878;6.168;2022-12-07T07:25:44;2.60;99.90
59148;DHT22;44930;52.878;6.168;2022-12-07T07:28:09;2.70;99.90
59148;DHT22;44930;52.878;6.168;2022-12-07T07:30:35;2.90;99.90
59148;DHT22;44930;52.878;6.168;2022-12-07T07:33:02;3.00;99.90
59148;DHT22;44930;52.878;6.168;2022-12-07T07:35:30;3.00;99.90
59148;DHT22;44930;52.878;6.168;2022-12-07T07:37:55;3.10;99.90
59148;DHT22;44930;52.878;6.168;2022-12-07T07:40:21;3.00;99.90
59148;DHT22;44930;52.878;6.168;2022-12-07T07:42:48;3.10;99.90
59148;DHT22;44930;52.878;6.168;2022-12-07T07:47:40;3.10;99.90
59148;DHT22;44930;52.878;6.168;2022-12-07T07:50:06;3.00;99.90
59148;DHT22;44930;52.878;6.168;2022-12-07T07:52:32;3.00;99.90
59148;DHT22;44930;52.878;6.168;2022-12-07T07:54:57;2.90;99.90
59148;DHT22;44930;52.878;6.168;2022-12-07T07:57:23;2.90;99.90
59148;DHT22;44930;52.878;6.168;2022-12-07T07:59:49;2.90;99.90
59148;DHT22;44930;52.878;6.168;2022-12-07T08:02:16;2.80;99.90
59148;DHT22;44930;52.878;6.168;2022-12-07T08:04:43;2.90;99.90
59148;DHT22;44930;52.878;6.168;2022-12-07T08:07:09;2.80;99.90
59148;DHT22;44930;52.878;6.168;2022-12-07T08:12:00;2.80;99.90
59148;DHT22;44930;52.878;6.168;2022-12-07T08:14:26;2.70;99.90
59148;DHT22;44930;52.878;6.168;2022-12-07T08:19:19;2.60;99.90
59148;DHT22;44930;52.878;6.168;2022-12-07T08:21:44;2.70;99.90
59148;DHT22;44930;52.878;6.168;2022-12-07T08:24:10;2.70;99.90
59148;DHT22;44930;52.878;6.168;2022-12-07T08:26:35;2.70;99.90
59148;DHT22;44930;52.878;6.168;2022-12-07T08:29:01;2.80;99.90
59148;DHT22;44930;52.878;6.168;2022-12-07T08:31:28;3.00;99.90
59148;DHT22;44930;52.878;6.168;2022-12-07T08:33:54;3.00;99.90
59148;DHT22;44930;52.878;6.168;2022-12-07T08:36:20;2.90;99.90
59148;DHT22;44930;52.878;6.168;2022-12-07T08:38:47;2.90;99.90
59148;DHT22;44930;52.878;6.168;2022-12-07T08:41:12;3.00;99.90
59148;DHT22;44930;52.878;6.168;2022-12-07T08:43:38;3.00;99.90
59148;DHT22;44930;52.878;6.168;2022-12-07T08:46:08;2.90;99.90
59148;DHT22;44930;52.878;6.168;2022-12-07T08:48:37;3.00;99.90
59148;DHT22;44930;52.878;6.168;2022-12-07T08:51:03;2.90;99.90
59148;DHT22;44930;52.878;6.168;2022-12-07T08:53:29;3.00;99.90
59148;DHT22;44930;52.878;6.168;2022-12-07T08:55:56;2.90;99.90
59148;DHT22;44930;52.878;6.168;2022-12-07T08:58:22;3.00;99.90
59148;DHT22;44930;52.878;6.168;2022-12-07T09:00:48;3.00;99.90
59148;DHT22;44930;52.878;6.168;2022-12-07T09:03:13;3.10;99.90
59148;DHT22;44930;52.878;6.168;2022-12-07T09:05:39;3.20;99.90
59148;DHT22;44930;52.878;6.168;2022-12-07T09:08:05;3.40;99.90
59148;DHT22;44930;52.878;6.168;2022-12-07T09:10:31;3.50;99.90
59148;DHT22;44930;52.878;6.168;2022-12-07T09:12:57;3.80;99.90
59148;DHT22;44930;52.878;6.168;2022-12-07T09:15:27;3.90;99.90
59148;DHT22;44930;52.878;6.168;2022-12-07T09:17:53;3.90;99.90
59148;DHT22;44930;52.878;6.168;2022-12-07T09:20:19;3.80;99.90
59148;DHT22;44930;52.878;6.168;2022-12-07T09:22:44;4.20;99.90
59148;DHT22;44930;52.878;6.168;2022-12-07T09:25:10;4.20;99.90
59148;DHT22;44930;52.878;6.168;2022-12-07T09:27:36;4.30;99.90
59148;DHT22;44930;52.878;6.168;2022-12-07T09:30:02;4.40;99.90
59148;DHT22;44930;52.878;6.168;2022-12-07T09:32:27;4.30;99.90
59148;DHT22;44930;52.878;6.168;2022-12-07T09:34:53;4.30;99.90
59148;DHT22;44930;52.878;6.168;2022-12-07T09:37:18;4.20;99.90
59148;DHT22;44930;52.878;6.168;2022-12-07T09:42:41;4.00;99.90
59148;DHT22;44930;52.878;6.168;2022-12-07T09:45:06;4.20;99.90
59148;DHT22;44930;52.878;6.168;2022-12-07T09:47:33;4.40;99.90
59148;DHT22;44930;52.878;6.168;2022-12-07T09:50:12;4.30;99.90
59148;DHT22;44930;52.878;6.168;2022-12-07T09:55:10;4.40;99.90
59148;DHT22;44930;52.878;6.168;2022-12-07T09:57:37;4.50;99.90
59148;DHT22;44930;52.878;6.168;2022-12-07T10:00:10;5.00;99.90
59148;DHT22;44930;52.878;6.168;2022-12-07T10:05:07;4.90;99.90
59148;DHT22;44930;52.878;6.168;2022-12-07T10:07:35;4.90;99.90
59148;DHT22;44930;52.878;6.168;2022-12-07T10:10:03;5.10;99.90
59148;DHT22;44930;52.878;6.168;2022-12-07T10:12:28;5.30;99.90
59148;DHT22;44930;52.878;6.168;2022-12-07T10:15:03;5.50;99.90
59148;DHT22;44930;52.878;6.168;2022-12-07T10:20:25;5.30;99.90
59148;DHT22;44930;52.878;6.168;2022-12-07T10:23:18;5.50;99.90
59148;DHT22;44930;52.878;6.168;2022-12-07T10:25:44;5.30;99.90
59148;DHT22;44930;52.878;6.168;2022-12-07T10:28:16;5.40;99.90
59148;DHT22;44930;52.878;6.168;2022-12-07T10:30:57;5.60;99.90
59148;DHT22;44930;52.878;6.168;2022-12-07T10:33:29;5.30;99.90
59148;DHT22;44930;52.878;6.168;2022-12-07T10:35:55;5.40;99.90
59148;DHT22;44930;52.878;6.168;2022-12-07T10:40:47;5.20;99.90
59148;DHT22;44930;52.878;6.168;2022-12-07T10:56:20;4.90;99.90
59148;DHT22;44930;52.878;6.168;2022-12-07T11:02:08;5.20;99.90
59148;DHT22;44930;52.878;6.168;2022-12-07T11:07:53;5.60;99.90
59148;DHT22;44930;52.878;6.168;2022-12-07T11:10:31;5.40;99.90
59148;DHT22;44930;52.878;6.168;2022-12-07T11:13:22;5.30;99.90
59148;DHT22;44930;52.878;6.168;2022-12-07T11:16:02;5.50;99.90
59148;DHT22;44930;52.878;6.168;2022-12-07T11:19:01;5.80;99.90
59148;DHT22;44930;52.878;6.168;2022-12-07T11:24:17;5.60;99.90
59148;DHT22;44930;52.878;6.168;2022-12-07T11:37:35;5.80;99.90
59148;DHT22;44930;52.878;6.168;2022-12-07T11:40:17;5.90;99.90
59148;DHT22;44930;52.878;6.168;2022-12-07T11:42:59;5.60;99.90
59148;DHT22;44930;52.878;6.168;2022-12-07T11:45:30;5.50;99.90
59148;DHT22;44930;52.878;6.168;2022-12-07T11:58:19;5.70;99.90
59148;DHT22;44930;52.878;6.168;2022-12-07T12:00:48;5.90;99.90
59148;DHT22;44930;52.878;6.168;2022-12-07T12:05:43;6.20;99.90
59148;DHT22;44930;52.878;6.168;2022-12-07T12:08:16;6.20;99.90
59148;DHT22;44930;52.878;6.168;2022-12-07T12:21:46;6.20;99.90
59148;DHT22;44930;52.878;6.168;2022-12-07T12:24:19;6.10;99.90
59148;DHT22;44930;52.878;6.168;2022-12-07T12:26:51;6.20;99.90
59148;DHT22;44930;52.878;6.168;2022-12-07T12:29:31;6.40;99.90
59148;DHT22;44930;52.878;6.168;2022-12-07T12:35:17;6.60;99.90
59148;DHT22;44930;52.878;6.168;2022-12-07T12:37:45;6.50;99.90
59148;DHT22;44930;52.878;6.168;2022-12-07T12:42:51;6.10;99.90
59148;DHT22;44930;52.878;6.168;2022-12-07T12:45:25;6.40;99.90
59148;DHT22;44930;52.878;6.168;2022-12-07T12:48:36;6.50;99.90
59148;DHT22;44930;52.878;6.168;2022-12-07T12:50:42;6.50;99.90
59148;DHT22;44930;52.878;6.168;2022-12-07T12:53:23;6.20;99.90
59148;DHT22;44930;52.878;6.168;2022-12-07T12:56:14;6.40;99.90
59148;DHT22;44930;52.878;6.168;2022-12-07T12:58:44;6.40;99.90
59148;DHT22;44930;52.878;6.168;2022-12-07T13:03:56;6.40;99.90
59148;DHT22;44930;52.878;6.168;2022-12-07T13:08:56;6.10;99.90
59148;DHT22;44930;52.878;6.168;2022-12-07T13:11:35;6.00;99.90
59148;DHT22;44930;52.878;6.168;2022-12-07T13:14:41;5.80;99.90
59148;DHT22;44930;52.878;6.168;2022-12-07T13:17:58;5.80;99.90
59148;DHT22;44930;52.878;6.168;2022-12-07T13:20:05;5.80;99.90
59148;DHT22;44930;52.878;6.168;2022-12-07T13:27:43;5.60;99.90
59148;DHT22;44930;52.878;6.168;2022-12-07T13:30:21;5.20;99.90
59148;DHT22;44930;52.878;6.168;2022-12-07T13:32:53;5.40;99.90
59148;DHT22;44930;52.878;6.168;2022-12-07T13:35:36;5.40;99.90
59148;DHT22;44930;52.878;6.168;2022-12-07T13:38:18;5.30;99.90
59148;DHT22;44930;52.878;6.168;2022-12-07T13:41:15;5.20;99.90
59148;DHT22;44930;52.878;6.168;2022-12-07T13:43:58;5.20;99.90
59148;DHT22;44930;52.878;6.168;2022-12-07T13:46:48;5.40;99.90
59148;DHT22;44930;52.878;6.168;2022-12-07T13:49:28;5.40;99.90
59148;DHT22;44930;52.878;6.168;2022-12-07T13:51:55;5.40;99.90
59148;DHT22;44930;52.878;6.168;2022-12-07T13:54:32;5.10;99.90
59148;DHT22;44930;52.878;6.168;2022-12-07T13:56:58;5.20;99.90
59148;DHT22;44930;52.878;6.168;2022-12-07T14:01:52;5.30;99.90
59148;DHT22;44930;52.878;6.168;2022-12-07T14:04:26;5.20;99.90
59148;DHT22;44930;52.878;6.168;2022-12-07T14:06:54;5.20;99.90
59148;DHT22;44930;52.878;6.168;2022-12-07T14:09:25;4.90;99.90
59148;DHT22;44930;52.878;6.168;2022-12-07T14:11:53;5.10;99.90
59148;DHT22;44930;52.878;6.168;2022-12-07T14:14:26;5.10;99.90
59148;DHT22;44930;52.878;6.168;2022-12-07T14:17:02;5.10;99.90
59148;DHT22;44930;52.878;6.168;2022-12-07T14:25:15;5.00;99.90
59148;DHT22;44930;52.878;6.168;2022-12-07T14:27:57;4.90;99.90
59148;DHT22;44930;52.878;6.168;2022-12-07T14:30:29;4.90;99.90
59148;DHT22;44930;52.878;6.168;2022-12-07T14:33:01;4.90;99.90
59148;DHT22;44930;52.878;6.168;2022-12-07T14:35:28;5.00;99.90
59148;DHT22;44930;52.878;6.168;2022-12-07T14:37:54;5.00;99.90
59148;DHT22;44930;52.878;6.168;2022-12-07T14:40:25;5.00;99.90
59148;DHT22;44930;52.878;6.168;2022-12-07T14:43:12;5.20;99.90
59148;DHT22;44930;52.878;6.168;2022-12-07T14:45:39;5.10;99.90
59148;DHT22;44930;52.878;6.168;2022-12-07T14:48:06;5.40;99.90
59148;DHT22;44930;52.878;6.168;2022-12-07T14:50:37;5.60;99.90
59148;DHT22;44930;52.878;6.168;2022-12-07T14:53:11;5.10;99.90
59148;DHT22;44930;52.878;6.168;2022-12-07T14:55:37;4.90;99.90
59148;DHT22;44930;52.878;6.168;2022-12-07T14:58:03;4.80;99.90
59148;DHT22;44930;52.878;6.168;2022-12-07T15:00:29;4.70;99.90
59148;DHT22;44930;52.878;6.168;2022-12-07T15:02:55;4.70;99.90
59148;DHT22;44930;52.878;6.168;2022-12-07T15:05:20;4.70;99.90
59148;DHT22;44930;52.878;6.168;2022-12-07T15:07:47;4.60;99.90
59148;DHT22;44930;52.878;6.168;2022-12-07T15:10:25;4.70;99.90
59148;DHT22;44930;52.878;6.168;2022-12-07T15:12:56;4.50;99.90
59148;DHT22;44930;52.878;6.168;2022-12-07T15:15:44;4.40;99.90
59148;DHT22;44930;52.878;6.168;2022-12-07T15:18:10;4.30;99.90
59148;DHT22;44930;52.878;6.168;2022-12-07T15:20:36;4.40;99.90
59148;DHT22;44930;52.878;6.168;2022-12-07T15:23:01;4.30;99.90
59148;DHT22;44930;52.878;6.168;2022-12-07T15:25:27;4.10;99.90
59148;DHT22;44930;52.878;6.168;2022-12-07T15:27:52;4.20;99.90
59148;DHT22;44930;52.878;6.168;2022-12-07T15:30:18;4.10;99.90
59148;DHT22;44930;52.878;6.168;2022-12-07T15:32:43;3.60;99.90
59148;DHT22;44930;52.878;6.168;2022-12-07T15:35:09;4.00;99.90
59148;DHT22;44930;52.878;6.168;2022-12-07T15:37:35;4.00;99.90
59148;DHT22;44930;52.878;6.168;2022-12-07T15:40:00;3.90;99.90
59148;DHT22;44930;52.878;6.168;2022-12-07T15:42:26;3.90;99.90
59148;DHT22;44930;52.878;6.168;2022-12-07T15:44:51;3.90;99.90
59148;DHT22;44930;52.878;6.168;2022-12-07T15:47:39;3.70;99.90
59148;DHT22;44930;52.878;6.168;2022-12-07T15:50:11;3.60;99.90
59148;DHT22;44930;52.878;6.168;2022-12-07T15:52:36;3.80;99.90
59148;DHT22;44930;52.878;6.168;2022-12-07T15:55:03;3.90;99.90
59148;DHT22;44930;52.878;6.168;2022-12-07T15:57:33;3.80;99.90
59148;DHT22;44930;52.878;6.168;2022-12-07T15:59:59;3.80;99.90
59148;DHT22;44930;52.878;6.168;2022-12-07T16:02:25;3.70;99.90
59148;DHT22;44930;52.878;6.168;2022-12-07T16:04:51;3.70;99.90
59148;DHT22;44930;52.878;6.168;2022-12-07T16:07:17;3.70;99.90
59148;DHT22;44930;52.878;6.168;2022-12-07T16:09:44;3.80;99.90
59148;DHT22;44930;52.878;6.168;2022-12-07T16:12:11;3.90;99.90
59148;DHT22;44930;52.878;6.168;2022-12-07T16:14:37;3.90;99.90
59148;DHT22;44930;52.878;6.168;2022-12-07T16:17:03;4.20;99.90
59148;DHT22;44930;52.878;6.168;2022-12-07T16:26:48;4.20;99.90
59148;DHT22;44930;52.878;6.168;2022-12-07T16:29:14;4.60;99.90
59148;DHT22;44930;52.878;6.168;2022-12-07T16:31:40;4.00;99.90
59148;DHT22;44930;52.878;6.168;2022-12-07T16:34:07;4.00;99.90
59148;DHT22;44930;52.878;6.168;2022-12-07T16:36:33;4.00;99.90
59148;DHT22;44930;52.878;6.168;2022-12-07T16:39:00;4.00;99.90
59148;DHT22;44930;52.878;6.168;2022-12-07T16:41:26;3.90;99.90
59148;DHT22;44930;52.878;6.168;2022-12-07T16:43:51;3.90;99.90
59148;DHT22;44930;52.878;6.168;2022-12-07T16:46:17;3.90;99.90
59148;DHT22;44930;52.878;6.168;2022-12-07T16:48:43;3.80;99.90
59148;DHT22;44930;52.878;6.168;2022-12-07T16:51:11;3.70;99.90
59148;DHT22;44930;52.878;6.168;2022-12-07T16:53:38;3.80;99.90
59148;DHT22;44930;52.878;6.168;2022-12-07T16:56:08;3.70;99.90
59148;DHT22;44930;52.878;6.168;2022-12-07T16:58:34;3.70;99.90
59148;DHT22;44930;52.878;6.168;2022-12-07T17:01:07;3.60;99.90
59148;DHT22;44930;52.878;6.168;2022-12-07T17:03:34;3.70;99.90
59148;DHT22;44930;52.878;6.168;2022-12-07T17:05:59;3.60;99.90
59148;DHT22;44930;52.878;6.168;2022-12-07T17:08:25;3.60;99.90
59148;DHT22;44930;52.878;6.168;2022-12-07T17:13:16;3.50;99.90
59148;DHT22;44930;52.878;6.168;2022-12-07T17:16:03;3.70;99.90
59148;DHT22;44930;52.878;6.168;2022-12-07T17:21:06;3.50;99.90
59148;DHT22;44930;52.878;6.168;2022-12-07T17:23:32;3.40;99.90
59148;DHT22;44930;52.878;6.168;2022-12-07T17:28:35;3.50;99.90
59148;DHT22;44930;52.878;6.168;2022-12-07T17:31:05;3.40;99.90
59148;DHT22;44930;52.878;6.168;2022-12-07T17:33:31;3.40;99.90
59148;DHT22;44930;52.878;6.168;2022-12-07T17:35:57;3.40;99.90
59148;DHT22;44930;52.878;6.168;2022-12-07T17:38:22;3.50;99.90
59148;DHT22;44930;52.878;6.168;2022-12-07T17:40:48;3.40;99.90
59148;DHT22;44930;52.878;6.168;2022-12-07T17:43:14;3.40;99.90
59148;DHT22;44930;52.878;6.168;2022-12-07T17:45:39;3.40;99.90
59148;DHT22;44930;52.878;6.168;2022-12-07T17:48:05;3.30;99.90
59148;DHT22;44930;52.878;6.168;2022-12-07T17:50:30;3.40;99.90
59148;DHT22;44930;52.878;6.168;2022-12-07T17:53:14;3.40;99.90
59148;DHT22;44930;52.878;6.168;2022-12-07T17:55:40;3.40;99.90
59148;DHT22;44930;52.878;6.168;2022-12-07T17:58:05;3.50;99.90
59148;DHT22;44930;52.878;6.168;2022-12-07T18:00:31;3.30;99.90
59148;DHT22;44930;52.878;6.168;2022-12-07T18:03:06;3.40;99.90
59148;DHT22;44930;52.878;6.168;2022-12-07T18:05:35;3.40;99.90
59148;DHT22;44930;52.878;6.168;2022-12-07T18:10:27;3.40;99.90
59148;DHT22;44930;52.878;6.168;2022-12-07T18:12:52;3.40;99.90
59148;DHT22;44930;52.878;6.168;2022-12-07T18:15:38;3.50;99.90
59148;DHT22;44930;52.878;6.168;2022-12-07T18:18:04;3.60;99.90
59148;DHT22;44930;52.878;6.168;2022-12-07T18:22:55;3.50;99.90
59148;DHT22;44930;52.878;6.168;2022-12-07T18:27:47;3.50;99.90
59148;DHT22;44930;52.878;6.168;2022-12-07T18:30:13;3.40;99.90
59148;DHT22;44930;52.878;6.168;2022-12-07T18:32:38;3.40;99.90
59148;DHT22;44930;52.878;6.168;2022-12-07T18:35:04;3.40;99.90
59148;DHT22;44930;52.878;6.168;2022-12-07T18:37:30;3.40;99.90
59148;DHT22;44930;52.878;6.168;2022-12-07T18:39:57;3.40;99.90
59148;DHT22;44930;52.878;6.168;2022-12-07T18:42:23;3.40;99.90
59148;DHT22;44930;52.878;6.168;2022-12-07T18:44:48;3.40;99.90
59148;DHT22;44930;52.878;6.168;2022-12-07T18:47:14;3.10;99.90
59148;DHT22;44930;52.878;6.168;2022-12-07T18:49:40;3.20;99.90
59148;DHT22;44930;52.878;6.168;2022-12-07T18:52:05;3.20;99.90
59148;DHT22;44930;52.878;6.168;2022-12-07T18:54:31;3.20;99.90
59148;DHT22;44930;52.878;6.168;2022-12-07T18:56:56;3.20;99.90
59148;DHT22;44930;52.878;6.168;2022-12-07T18:59:22;3.20;99.90
59148;DHT22;44930;52.878;6.168;2022-12-07T19:02:06;3.20;99.90
59148;DHT22;44930;52.878;6.168;2022-12-07T19:04:31;3.10;99.90
59148;DHT22;44930;52.878;6.168;2022-12-07T19:06:57;3.00;99.90
59148;DHT22;44930;52.878;6.168;2022-12-07T19:16:43;3.30;99.90
59148;DHT22;44930;52.878;6.168;2022-12-07T19:21:35;3.10;99.90